createdAt,value
2022-10-17T00:01:00.588Z,100477.70
2022-10-17T00:03:36.218Z,100470.09
2022-10-17T00:06:09.966Z,100456.83
2022-10-17T00:08:38.780Z,100464.95
2022-10-17T00:11:16.958Z,100470.78
2022-10-17T00:13:48.133Z,100476.93
2022-10-17T00:16:25.142Z,100492.86
2022-10-17T00:18:57.206Z,100508.29
2022-10-17T00:21:28.501Z,100516.30
2022-10-17T00:23:57.570Z,100516.20
2022-10-17T00:26:30.152Z,100521.88
2022-10-17T00:28:58.487Z,100522.42
2022-10-17T00:31:26.526Z,100521.44
2022-10-17T00:33:54.805Z,100518.83
2022-10-17T00:36:27.186Z,100520.58
2022-10-17T00:38:59.644Z,100514.19
2022-10-17T00:41:30.809Z,100513.11
2022-10-17T00:44:07.077Z,100508.67
2022-10-17T00:46:39.424Z,100502.88
2022-10-17T00:49:10.255Z,100499.38
2022-10-17T00:51:51.340Z,100497.91
2022-10-17T00:54:23.570Z,100505.39
2022-10-17T00:56:52.262Z,100509.92
2022-10-17T00:59:22.551Z,100515.30
2022-10-17T01:02:02.511Z,100512.80
2022-10-17T01:04:33.968Z,100515.77
2022-10-17T01:07:02.096Z,100519.80
2022-10-17T01:09:31.033Z,100528.31
2022-10-17T01:11:59.491Z,100533.15
2022-10-17T01:14:34.058Z,100527.62
2022-10-17T01:17:28.385Z,100523.77
2022-10-17T01:20:22.678Z,100527.29
2022-10-17T01:23:10.611Z,100530.62
2022-10-17T01:25:48.114Z,100529.63
2022-10-17T01:31:19.460Z,100520.59
2022-10-17T01:34:01.191Z,100515.77
2022-10-17T01:36:44.968Z,100516.87
2022-10-17T01:39:45.622Z,100510.89
2022-10-17T01:42:39.194Z,100509.27
2022-10-17T01:45:14.778Z,100513.10
2022-10-17T01:47:49.374Z,100518.09
2022-10-17T01:50:25.691Z,100516.08
2022-10-17T01:53:08.174Z,100516.98
2022-10-17T01:55:42.415Z,100514.47
2022-10-17T01:58:16.961Z,100509.95
2022-10-17T02:00:48.058Z,100513.39
2022-10-17T02:03:21.070Z,100516.25
2022-10-17T02:05:50.915Z,100521.60
2022-10-17T02:08:40.864Z,100517.73
2022-10-17T02:11:21.932Z,100513.85
2022-10-17T02:14:31.770Z,100505.48
2022-10-17T02:17:08.980Z,100509.60
2022-10-17T02:20:23.429Z,100502.64
2022-10-17T02:23:12.642Z,100499.55
2022-10-17T02:26:01.407Z,100501.38
2022-10-17T02:28:44.015Z,100511.55
2022-10-17T02:31:25.227Z,100514.65
2022-10-17T02:34:06.622Z,100512.09
2022-10-17T02:36:45.646Z,100509.33
2022-10-17T02:39:16.064Z,100507.16
2022-10-17T02:41:46.447Z,100515.46
2022-10-17T02:44:14.787Z,100517.08
2022-10-17T02:46:47.937Z,100516.21
2022-10-17T02:49:25.182Z,100523.80
2022-10-17T02:52:15.984Z,100527.98
2022-10-17T02:54:54.656Z,100530.21
2022-10-17T02:57:30.950Z,100532.07
2022-10-17T03:00:07.602Z,100532.28
2022-10-17T03:02:43.052Z,100530.77
2022-10-17T03:05:19.564Z,100522.44
2022-10-17T03:07:48.562Z,100518.94
2022-10-17T03:10:22.720Z,100514.73
2022-10-17T03:12:52.318Z,100514.71
2022-10-17T03:15:20.883Z,100512.77
2022-10-17T03:17:51.273Z,100512.45
2022-10-17T03:20:19.813Z,100515.14
2022-10-17T03:22:49.158Z,100518.70
2022-10-17T03:25:17.774Z,100523.29
2022-10-17T03:27:47.006Z,100524.86
2022-10-17T03:30:16.234Z,100529.05
2022-10-17T03:32:44.625Z,100530.10
2022-10-17T03:35:17.130Z,100532.71
2022-10-17T03:37:45.850Z,100531.84
2022-10-17T03:40:14.772Z,100533.92
2022-10-17T03:42:47.424Z,100533.98
2022-10-17T03:45:16.175Z,100535.23
2022-10-17T03:47:44.341Z,100535.07
2022-10-17T03:50:12.829Z,100535.35
2022-10-17T03:52:42.332Z,100535.05
2022-10-17T03:55:10.318Z,100531.13
2022-10-17T03:57:41.092Z,100525.27
2022-10-17T04:00:13.020Z,100523.48
2022-10-17T04:02:41.533Z,100525.59
2022-10-17T04:05:09.738Z,100526.20
2022-10-17T04:07:38.501Z,100526.15
2022-10-17T04:10:07.077Z,100530.05
2022-10-17T04:12:35.406Z,100529.59
2022-10-17T04:15:04.576Z,100532.47
2022-10-17T04:17:37.229Z,100537.48
2022-10-17T04:20:07.182Z,100536.17
2022-10-17T04:22:36.162Z,100538.34
2022-10-17T04:25:05.152Z,100540.11
2022-10-17T04:27:33.253Z,100541.05
2022-10-17T04:30:01.312Z,100545.15
2022-10-17T04:32:37.425Z,100548.98
2022-10-17T04:35:05.945Z,100552.45
2022-10-17T04:37:34.506Z,100546.08
2022-10-17T04:40:03.471Z,100546.73
2022-10-17T04:42:31.961Z,100544.39
2022-10-17T04:45:00.386Z,100549.79
2022-10-17T04:47:30.372Z,100551.12
2022-10-17T04:49:58.422Z,100550.30
2022-10-17T04:52:27.259Z,100551.17
2022-10-17T04:54:55.735Z,100551.55
2022-10-17T04:57:25.052Z,100548.62
2022-10-17T04:59:53.226Z,100546.76
2022-10-17T05:02:21.258Z,100542.25
2022-10-17T05:04:49.466Z,100546.13
2022-10-17T05:07:17.610Z,100547.08
2022-10-17T05:09:45.794Z,100549.44
2022-10-17T05:12:13.747Z,100546.56
2022-10-17T05:14:42.680Z,100547.16
2022-10-17T05:17:11.365Z,100546.38
2022-10-17T05:19:39.512Z,100548.64
2022-10-17T05:22:07.727Z,100546.45
2022-10-17T05:24:35.804Z,100552.81
2022-10-17T05:27:03.837Z,100554.59
2022-10-17T05:29:32.033Z,100557.98
2022-10-17T05:34:28.045Z,100556.89
2022-10-17T05:37:02.581Z,100554.02
2022-10-17T05:39:30.694Z,100559.49
2022-10-17T05:41:58.820Z,100561.42
2022-10-17T05:44:26.910Z,100560.41
2022-10-17T05:46:54.943Z,100562.84
2022-10-17T05:49:33.254Z,100565.17
2022-10-17T05:52:11.598Z,100565.02
2022-10-17T05:54:39.921Z,100565.02
2022-10-17T05:57:08.142Z,100566.49
2022-10-17T05:59:36.284Z,100566.42
2022-10-17T06:02:05.168Z,100570.42
2022-10-17T06:04:35.606Z,100570.00
2022-10-17T06:07:05.196Z,100573.77
2022-10-17T06:09:33.819Z,100574.48
2022-10-17T06:12:01.897Z,100578.62
2022-10-17T06:14:30.115Z,100579.53
2022-10-17T06:16:59.434Z,100580.61
2022-10-17T06:19:27.792Z,100580.99
2022-10-17T06:21:55.885Z,100585.88
2022-10-17T06:24:24.665Z,100582.54
2022-10-17T06:26:53.031Z,100584.69
2022-10-17T06:29:25.986Z,100580.09
2022-10-17T06:31:56.966Z,100581.92
2022-10-17T06:34:27.656Z,100589.08
2022-10-17T06:37:03.542Z,100587.08
2022-10-17T06:39:42.146Z,100590.48
2022-10-17T06:42:28.028Z,100593.38
2022-10-17T06:44:59.490Z,100594.95
2022-10-17T06:47:31.670Z,100597.77
2022-10-17T06:50:02.866Z,100601.62
2022-10-17T06:52:37.938Z,100604.02
2022-10-17T06:55:21.966Z,100608.05
2022-10-17T06:58:02.308Z,100613.88
2022-10-17T07:00:31.936Z,100619.20
2022-10-17T07:03:09.806Z,100626.29
2022-10-17T07:05:55.090Z,100633.27
2022-10-17T07:08:34.220Z,100636.83
2022-10-17T07:11:23.532Z,100639.89
2022-10-17T07:13:52.907Z,100632.96
2022-10-17T07:16:30.692Z,100640.60
2022-10-17T07:19:21.362Z,100642.27
2022-10-17T07:22:15.578Z,100642.22
2022-10-17T07:27:27.952Z,100639.18
2022-10-17T07:29:56.971Z,100637.02
2022-10-17T07:32:30.803Z,100636.58
2022-10-17T07:35:02.535Z,100637.48
2022-10-17T07:37:43.065Z,100637.42
2022-10-17T07:40:21.710Z,100632.48
2022-10-17T07:42:52.576Z,100637.98
2022-10-17T07:45:51.224Z,100633.69
2022-10-17T07:49:03.681Z,100634.70
2022-10-17T07:51:36.198Z,100635.76
2022-10-17T07:54:26.655Z,100638.80
2022-10-17T07:56:59.969Z,100638.34
2022-10-17T07:59:31.017Z,100639.41
2022-10-17T08:02:09.207Z,100641.58
2022-10-17T08:04:43.806Z,100641.90
2022-10-17T08:07:24.111Z,100644.46
2022-10-17T08:09:54.726Z,100646.02
2022-10-17T08:12:27.088Z,100651.59
2022-10-17T08:15:06.325Z,100652.20
2022-10-17T08:17:57.172Z,100650.60
2022-10-17T08:20:36.370Z,100652.14
2022-10-17T08:23:09.525Z,100656.23
2022-10-17T08:25:45.936Z,100658.61
2022-10-17T08:28:20.646Z,100656.21
2022-10-17T08:31:24.027Z,100655.70
2022-10-17T08:33:56.149Z,100655.49
2022-10-17T08:36:35.297Z,100654.47
2022-10-17T08:39:14.346Z,100653.16
2022-10-17T08:41:59.930Z,100658.08
2022-10-17T08:44:56.416Z,100657.09
2022-10-17T08:47:43.482Z,100650.35
2022-10-17T08:50:31.887Z,100651.07
2022-10-17T08:53:33.321Z,100651.00
2022-10-17T08:56:49.004Z,100646.27
2022-10-17T08:59:31.175Z,100643.29
2022-10-17T09:02:06.692Z,100646.87
2022-10-17T09:05:07.726Z,100645.75
2022-10-17T09:07:52.261Z,100643.96
2022-10-17T09:10:40.371Z,100642.83
2022-10-17T09:13:19.581Z,100641.62
2022-10-17T09:16:11.348Z,100638.04
2022-10-17T09:19:20.415Z,100640.00
2022-10-17T09:22:14.649Z,100634.98
2022-10-17T09:25:00.862Z,100633.41
2022-10-17T09:27:59.683Z,100634.31
2022-10-17T09:30:45.931Z,100628.46
2022-10-17T09:33:59.209Z,100626.99
2022-10-17T09:36:43.722Z,100626.69
2022-10-17T09:39:32.262Z,100627.54
2022-10-17T09:42:05.112Z,100626.80
2022-10-17T09:44:52.359Z,100630.73
2022-10-17T09:47:40.958Z,100628.23
2022-10-17T09:50:26.720Z,100631.35
2022-10-17T09:52:58.277Z,100630.33
2022-10-17T09:56:02.416Z,100631.09
2022-10-17T09:58:48.267Z,100636.45
2022-10-17T10:01:24.403Z,100637.50
2022-10-17T10:04:46.736Z,100637.97
2022-10-17T10:07:29.241Z,100631.10
2022-10-17T10:10:05.909Z,100631.86
2022-10-17T10:12:38.488Z,100633.11
2022-10-17T10:15:34.232Z,100630.59
2022-10-17T10:21:17.122Z,100633.31
2022-10-17T10:24:06.474Z,100631.22
2022-10-17T10:27:03.027Z,100631.89
2022-10-17T10:29:34.321Z,100630.12
2022-10-17T10:32:28.982Z,100632.69
2022-10-17T10:35:09.977Z,100629.90
2022-10-17T10:37:46.845Z,100636.65
2022-10-17T10:40:59.774Z,100631.24
2022-10-17T10:43:42.579Z,100633.03
2022-10-17T10:46:27.275Z,100634.35
2022-10-17T10:49:11.434Z,100631.48
2022-10-17T10:51:53.333Z,100625.06
2022-10-17T10:54:36.902Z,100624.73
2022-10-17T10:57:34.350Z,100625.97
2022-10-17T11:00:17.965Z,100631.41
2022-10-17T11:03:26.564Z,100631.30
2022-10-17T11:06:21.846Z,100629.88
2022-10-17T11:09:11.506Z,100628.08
2022-10-17T11:11:56.408Z,100632.02
2022-10-17T11:14:42.880Z,100627.52
2022-10-17T11:17:38.751Z,100625.58
2022-10-17T11:20:26.324Z,100626.80
2022-10-17T11:23:12.740Z,100620.75
2022-10-17T11:26:01.231Z,100623.38
2022-10-17T11:28:41.892Z,100622.56
2022-10-17T11:31:15.134Z,100615.38
2022-10-17T11:33:59.175Z,100607.44
2022-10-17T11:36:37.945Z,100608.90
2022-10-17T11:39:31.717Z,100604.77
2022-10-17T11:42:25.868Z,100602.11
2022-10-17T11:45:11.451Z,100599.97
2022-10-17T11:48:00.610Z,100595.10
2022-10-17T11:53:51.868Z,100590.68
2022-10-17T11:56:51.116Z,100589.90
2022-10-17T11:59:43.980Z,100591.73
2022-10-17T12:02:34.014Z,100589.18
2022-10-17T12:05:25.752Z,100586.08
2022-10-17T12:08:18.509Z,100575.10
2022-10-17T12:11:28.912Z,100571.85
2022-10-17T12:13:57.424Z,100577.97
2022-10-17T12:16:46.978Z,100581.42
2022-10-17T12:19:25.944Z,100577.88
2022-10-17T12:22:03.557Z,100573.10
2022-10-17T12:24:32.947Z,100573.28
2022-10-17T12:27:44.194Z,100571.39
2022-10-17T12:30:30.464Z,100565.40
2022-10-17T12:33:07.496Z,100564.73
2022-10-17T12:35:38.875Z,100565.59
2022-10-17T12:38:28.976Z,100560.58
2022-10-17T12:40:59.738Z,100557.10
2022-10-17T12:43:28.454Z,100554.70
2022-10-17T12:45:57.626Z,100555.34
2022-10-17T12:48:34.866Z,100553.47
2022-10-17T12:51:35.201Z,100551.25
2022-10-17T12:54:15.268Z,100547.34
2022-10-17T12:56:51.883Z,100545.23
2022-10-17T12:59:36.207Z,100543.09
2022-10-17T13:02:18.070Z,100539.98
2022-10-17T13:04:57.325Z,100538.81
2022-10-17T13:07:40.311Z,100530.85
2022-10-17T13:10:24.248Z,100532.14
2022-10-17T13:13:24.294Z,100531.86
2022-10-17T13:15:55.732Z,100532.33
2022-10-17T13:18:27.530Z,100532.19
2022-10-17T13:21:00.441Z,100531.05
2022-10-17T13:23:42.579Z,100533.11
2022-10-17T13:26:33.830Z,100535.27
2022-10-17T13:29:16.590Z,100538.14
2022-10-17T13:31:53.515Z,100535.27
2022-10-17T13:34:28.467Z,100535.81
2022-10-17T13:37:10.869Z,100534.92
2022-10-17T13:39:55.178Z,100527.60
2022-10-17T13:42:42.003Z,100524.56
2022-10-17T13:45:27.917Z,100524.00
2022-10-17T13:48:17.373Z,100525.81
2022-10-17T13:50:50.613Z,100519.76
2022-10-17T13:53:29.959Z,100518.45
2022-10-17T13:56:26.447Z,100513.48
2022-10-17T13:58:54.205Z,100517.44
2022-10-17T14:01:28.700Z,100520.03
2022-10-17T14:04:08.867Z,100520.27
2022-10-17T14:06:49.733Z,100519.23
2022-10-17T14:09:31.237Z,100513.48
2022-10-17T14:12:11.320Z,100514.14
2022-10-17T14:15:09.280Z,100510.33
2022-10-17T14:17:42.550Z,100516.14
2022-10-17T14:23:34.287Z,100513.34
2022-10-17T14:26:12.513Z,100514.02
2022-10-17T14:28:50.865Z,100512.05
2022-10-17T14:31:29.391Z,100511.84
2022-10-17T14:34:01.238Z,100515.48
2022-10-17T14:36:43.517Z,100510.98
2022-10-17T14:39:21.126Z,100511.42
2022-10-17T14:41:59.636Z,100513.91
2022-10-17T14:44:36.875Z,100510.58
2022-10-17T14:47:42.375Z,100508.67
2022-10-17T14:50:12.023Z,100507.41
2022-10-17T14:52:41.104Z,100510.35
2022-10-17T14:55:27.257Z,100512.43
2022-10-17T14:58:01.182Z,100511.64
2022-10-17T15:00:37.079Z,100514.35
2022-10-17T15:03:11.969Z,100515.63
2022-10-17T15:05:40.541Z,100514.64
2022-10-17T15:08:20.304Z,100512.35
2022-10-17T15:10:54.872Z,100515.11
2022-10-17T15:13:28.008Z,100516.56
2022-10-17T15:15:59.908Z,100519.52
2022-10-17T15:18:28.802Z,100518.58
2022-10-17T15:21:04.829Z,100524.00
2022-10-17T15:23:42.657Z,100522.37
2022-10-17T15:26:20.581Z,100522.64
2022-10-17T15:28:50.305Z,100519.39
2022-10-17T15:31:20.150Z,100516.98
2022-10-17T15:33:48.398Z,100520.09
2022-10-17T15:36:27.607Z,100519.65
2022-10-17T15:38:58.319Z,100521.28
2022-10-17T15:41:29.654Z,100526.67
2022-10-17T15:43:59.726Z,100522.48
2022-10-17T15:46:30.844Z,100519.34
2022-10-17T15:49:01.910Z,100525.42
2022-10-17T15:51:31.646Z,100529.20
2022-10-17T15:54:02.871Z,100529.43
2022-10-17T15:56:36.601Z,100531.84
2022-10-17T15:59:13.145Z,100532.97
2022-10-17T16:01:43.192Z,100536.52
2022-10-17T16:04:16.043Z,100543.37
2022-10-17T16:06:45.380Z,100543.38
2022-10-17T16:09:13.666Z,100537.20
2022-10-17T16:11:43.931Z,100537.04
2022-10-17T16:14:18.412Z,100533.70
2022-10-17T16:16:47.370Z,100539.05
2022-10-17T16:19:17.272Z,100547.70
2022-10-17T16:21:47.019Z,100555.05
2022-10-17T16:24:18.816Z,100550.88
2022-10-17T16:26:59.366Z,100553.11
2022-10-17T16:29:30.640Z,100551.02
2022-10-17T16:31:58.768Z,100548.39
2022-10-17T16:34:26.917Z,100541.49
2022-10-17T16:36:55.098Z,100541.99
2022-10-17T16:39:23.827Z,100545.98
2022-10-17T16:41:58.686Z,100544.11
2022-10-17T16:44:27.282Z,100542.17
2022-10-17T16:46:56.865Z,100537.38
2022-10-17T16:49:26.501Z,100542.13
2022-10-17T16:51:58.917Z,100549.89
2022-10-17T16:54:30.602Z,100550.25
2022-10-17T16:56:58.931Z,100553.33
2022-10-17T16:59:28.222Z,100554.18
2022-10-17T17:01:57.567Z,100553.53
2022-10-17T17:04:26.768Z,100556.20
2022-10-17T17:06:54.935Z,100557.56
2022-10-17T17:09:23.202Z,100556.98
2022-10-17T17:11:51.422Z,100553.52
2022-10-17T17:14:19.987Z,100556.27
2022-10-17T17:16:48.595Z,100555.20
2022-10-17T17:19:17.546Z,100557.56
2022-10-17T17:21:50.877Z,100552.55
2022-10-17T17:24:23.568Z,100553.73
2022-10-17T17:26:54.369Z,100553.55
2022-10-17T17:29:24.543Z,100545.91
2022-10-17T17:31:53.058Z,100544.38
2022-10-17T17:34:21.351Z,100535.80
2022-10-17T17:36:50.950Z,100543.35
2022-10-17T17:39:19.600Z,100540.77
2022-10-17T17:41:48.260Z,100540.22
2022-10-17T17:44:17.278Z,100544.69
2022-10-17T17:46:46.310Z,100541.85
2022-10-17T17:49:14.607Z,100545.33
2022-10-17T17:51:46.670Z,100543.55
2022-10-17T17:54:15.744Z,100542.54
2022-10-17T18:14:19.503Z,100539.89
2022-10-17T18:40:05.870Z,100548.89
2022-10-17T18:58:47.676Z,100550.98
2022-10-17T19:02:37.984Z,100559.28
2022-10-17T22:01:48.286Z,100589.25
2022-10-17T22:04:23.677Z,100586.88
2022-10-17T22:07:08.384Z,100590.85
2022-10-17T22:10:02.526Z,100594.94
2022-10-17T22:12:54.662Z,100592.45
2022-10-17T22:15:43.242Z,100591.63
2022-10-17T22:19:12.374Z,100594.86
2022-10-17T22:25:30.893Z,100590.31
2022-10-17T22:28:53.365Z,100590.80
2022-10-17T22:31:42.403Z,100592.29
2022-10-17T22:34:35.038Z,100586.23
2022-10-17T22:40:58.364Z,100587.52
2022-10-17T22:43:39.228Z,100585.75
2022-10-17T22:46:13.558Z,100587.92
2022-10-17T22:49:02.080Z,100588.04
2022-10-17T22:51:43.658Z,100588.19
2022-10-17T22:54:34.645Z,100586.83
2022-10-17T22:57:15.224Z,100585.55
2022-10-17T23:00:03.680Z,100584.30
2022-10-17T23:02:41.955Z,100582.84
2022-10-17T23:05:19.487Z,100582.39
2022-10-17T23:08:21.301Z,100582.61
2022-10-17T23:11:14.263Z,100586.21
2022-10-17T23:13:52.255Z,100586.77
2022-10-17T23:16:24.480Z,100585.18
2022-10-17T23:19:25.511Z,100584.14
2022-10-17T23:22:45.166Z,100579.70
2022-10-17T23:25:16.977Z,100583.27
2022-10-17T23:27:48.254Z,100581.48
2022-10-17T23:30:43.122Z,100577.46
2022-10-17T23:33:26.398Z,100581.42
2022-10-17T23:37:05.775Z,100580.64
2022-10-17T23:39:46.262Z,100582.53
2022-10-17T23:42:49.049Z,100581.06
2022-10-17T23:45:36.859Z,100579.05
2022-10-17T23:48:19.184Z,100580.89
2022-10-17T23:51:09.387Z,100587.42
2022-10-17T23:53:53.290Z,100584.27
2022-10-17T23:56:59.215Z,100585.92
